Parris Island, SC

2:21 PM EDT on April 25, 2015 (GMT -0400)
Savannah International | | Change Station
CLOSE
Current Station
Airport
Location: Savannah,
Elevation: 49 ft
Nearby Weather Stations

Elev 49 ft 32.13 °N, 81.20 °W | Updated 28 minutes ago

Mostly Cloudy
Mostly Cloudy
72 °F
Feels Like 72 °F
N
10
Wind Variable Wind from SSE

Today
High -- | Low -- °F
--% Chance of Precip.
Yesterday
High -- | Low -- °F
Precip. -- in
6:42 AM 7:59 PM
Waxing Crescent, 48% visible
Pressure 29.79 in
Visibility 10.0 miles
Clouds Scattered Clouds 600 ft
Mostly Cloudy 1000 ft
Overcast 10000 ft
Dew Point 68 °F
Humidity 87%
Rainfall 1.80 in
Snow Depth Not available.
UV 4 out of 12
Pollen 8.40 out of 12
Air Quality Not available.
Flu Activity Local Activity
METAR KSAV 251753Z 15009KT 10SM SCT006 BKN010 OVC100 22/20 A2979 RMK AO2 TSE1655RAE01 SLP088 P0000 60180 T02220200 10222 20189 58034

More Conditions Fewer Conditions

Pressure 29.79 in
Visibility 10.0 miles
Clouds Scattered Clouds 600 ft
Mostly Cloudy 1000 ft
Overcast 10000 ft
Dew Point 68 °F
Humidity 87%
Rainfall 1.80 in
Snow Depth Not available.
UV 4 out of 12
Pollen 8.40 out of 12
Air Quality Not available.
Flu Activity Local Activity
METAR KSAV 251753Z 15009KT 10SM SCT006 BKN010 OVC100 22/20 A2979 RMK AO2 TSE1655RAE01 SLP088 P0000 60180 T02220200 10222 20189 58034

More Conditions Fewer Conditions

10-Day Weather Forecast

Almanac

Astronomy

Apr. 25, 2015 Rise Set
Actual Time
Civil Twilight
Nautical Twilight
Astronomical Twilight
Moon
Length of Visible Light
Length of Day
Tomorrow will be .
, % of the Moon is Illuminated

Today's Extremes

State Highs State Lows

Community

WunderPhotos

Upload Photos

1,816,765 photos uploaded!

WunderBlogs® & News

Nearby

Air Quality

  Air Quality AQ Index Pollutant
Not available.

Snow Depth

Station Depth Elevation

Earthquake Activity

City Distance Mag. Time & Date
Minimum magnitude displayed is 2.5.

Coastal Water Temperatures

Place Temperature

Stations

Nearby Weather Stations

Station Location Temp. Windchill Dew Point Humidity Wind Precip. Elev Updated Type